Milwaukee, Wisconsin
Traffic Map
Current Weather Conditions
Milwaukee, Wisconsin
Overcast Light Rain
Overcast
13°
Feels Like: 13°
Wind Chill: 13° Ceiling: 6500
Heat Index: 13° Visibility: 10mi
Dew Point: Wind: 7mph
Humidity: 74% Direction: 330° (NNW)
Pressure: 29.77in Gusts: 0mph
Raw Report DataKMKE 272352Z 33006KT 10SM -RA OVC065 13/08 A2977 RMK AO2 SLP081 P0001 60001 T01280083 10172 20128 51011
Traffic Incident Summary
Active as of:
Severity:
Category:
InformationThere was an issue retrieving the traffic information for this location. Please try a different location or try again shortly.
Advertisements
Track Severe Weather on mobile